createdAt,value
2022-11-09T00:02:44.127Z,78
2022-11-09T00:07:45.717Z,79
2022-11-09T00:12:47.747Z,79
2022-11-09T00:17:49.438Z,79
2022-11-09T00:22:50.769Z,79
2022-11-09T00:27:52.238Z,80
2022-11-09T00:32:53.606Z,80
2022-11-09T00:37:55.214Z,80
2022-11-09T00:42:57.342Z,80
2022-11-09T00:47:59.009Z,80
2022-11-09T00:53:00.853Z,80
2022-11-09T00:58:02.725Z,80
2022-11-09T01:03:04.009Z,80
2022-11-09T01:08:05.516Z,81
2022-11-09T01:13:07.565Z,81
2022-11-09T01:18:08.816Z,81
2022-11-09T01:23:10.599Z,82
2022-11-09T01:28:12.331Z,81
2022-11-09T01:33:14.289Z,81
2022-11-09T01:38:15.669Z,82
2022-11-09T01:43:17.650Z,81
2022-11-09T01:48:18.515Z,81
2022-11-09T01:53:20.174Z,81
2022-11-09T01:58:21.459Z,81
2022-11-09T02:03:23.095Z,81
2022-11-09T02:08:24.340Z,81
2022-11-09T02:13:26.348Z,81
2022-11-09T02:18:28.378Z,81
2022-11-09T02:23:30.132Z,81
2022-11-09T02:28:32.163Z,81
2022-11-09T02:33:34.046Z,81
2022-11-09T02:38:36.055Z,81
2022-11-09T02:43:37.510Z,81
2022-11-09T02:48:39.200Z,81
2022-11-09T02:53:40.392Z,81
2022-11-09T02:58:41.669Z,81
2022-11-09T03:03:42.940Z,81
2022-11-09T03:08:44.740Z,81
2022-11-09T03:13:46.774Z,81
2022-11-09T03:18:48.154Z,81
2022-11-09T03:23:49.744Z,81
2022-11-09T03:23:55.979Z,81
2022-11-09T03:28:57.567Z,81
2022-11-09T03:33:59.263Z,81
2022-11-09T03:39:00.872Z,80
2022-11-09T03:44:02.832Z,81
2022-11-09T03:49:04.607Z,81
2022-11-09T03:54:06.748Z,81
2022-11-09T03:59:08.813Z,81
2022-11-09T04:04:10.049Z,81
2022-11-09T04:09:11.680Z,82
2022-11-09T04:14:13.506Z,82
2022-11-09T04:19:15.120Z,82
2022-11-09T04:24:16.876Z,82
2022-11-09T04:29:19.001Z,83
2022-11-09T04:34:20.725Z,83
2022-11-09T04:39:22.165Z,83
2022-11-09T04:44:23.605Z,83
2022-11-09T04:49:25.526Z,83
2022-11-09T04:54:27.227Z,83
2022-11-09T04:59:28.689Z,82
2022-11-09T05:04:29.906Z,83
2022-11-09T05:09:31.411Z,82
2022-11-09T05:14:32.784Z,83
2022-11-09T05:19:34.056Z,83
2022-11-09T05:24:35.993Z,83
2022-11-09T05:29:38.231Z,83
2022-11-09T05:34:39.936Z,83
2022-11-09T05:39:41.092Z,83
2022-11-09T05:44:42.697Z,83
2022-11-09T05:49:44.530Z,83
2022-11-09T05:54:45.789Z,84
2022-11-09T05:59:47.939Z,84
2022-11-09T06:04:50.063Z,84
2022-11-09T06:09:51.852Z,83
2022-11-09T06:14:53.237Z,84
2022-11-09T06:19:54.801Z,84
2022-11-09T06:24:56.226Z,84
2022-11-09T06:29:58.430Z,84
2022-11-09T06:34:59.955Z,84
2022-11-09T06:40:01.957Z,83
2022-11-09T06:45:03.220Z,83
2022-11-09T06:50:04.455Z,81
2022-11-09T06:55:05.801Z,80
2022-11-09T07:00:07.268Z,78
2022-11-09T07:05:08.575Z,76
2022-11-09T07:10:10.063Z,76
2022-11-09T07:15:11.633Z,75
2022-11-09T07:20:13.462Z,74
2022-11-09T07:25:14.892Z,74
2022-11-09T07:30:16.379Z,74
2022-11-09T07:35:18.409Z,73
2022-11-09T07:40:19.932Z,73
2022-11-09T07:45:21.679Z,73
2022-11-09T07:50:23.347Z,72
2022-11-09T07:55:25.387Z,70
2022-11-09T08:00:26.908Z,70
2022-11-09T08:05:28.956Z,70
2022-11-09T08:10:30.223Z,68
2022-11-09T08:15:32.136Z,66
2022-11-09T08:20:33.434Z,65
2022-11-09T08:25:35.321Z,64
2022-11-09T08:30:37.041Z,63
2022-11-09T08:35:38.882Z,63
2022-11-09T08:40:40.156Z,63
2022-11-09T08:45:41.471Z,63
2022-11-09T08:50:43.446Z,62
2022-11-09T08:55:49.278Z,61
2022-11-09T09:00:47.557Z,61
2022-11-09T09:05:48.308Z,62
2022-11-09T09:10:49.800Z,62
2022-11-09T09:15:51.259Z,63
2022-11-09T09:20:52.974Z,62
2022-11-09T09:25:58.439Z,61
2022-11-09T09:30:56.427Z,62
2022-11-09T09:35:57.848Z,62
2022-11-09T09:40:59.469Z,61
2022-11-09T09:46:00.693Z,62
2022-11-09T09:51:02.452Z,62
2022-11-09T09:56:04.148Z,62
2022-11-09T10:01:06.223Z,63
2022-11-09T10:06:08.286Z,62
2022-11-09T10:11:10.276Z,62
2022-11-09T10:16:11.933Z,59
2022-11-09T10:46:22.525Z,56
2022-11-09T10:51:24.051Z,58
2022-11-09T10:56:27.137Z,52
2022-11-09T11:01:27.558Z,50
2022-11-09T11:06:29.281Z,49
2022-11-09T11:11:34.140Z,48
2022-11-09T11:16:32.878Z,48
2022-11-09T11:21:34.221Z,48
2022-11-09T11:26:36.048Z,49
2022-11-09T11:31:37.824Z,48
2022-11-09T11:36:40.000Z,50
2022-11-09T11:41:41.912Z,50
2022-11-09T11:46:43.544Z,50
2022-11-09T11:51:45.151Z,51
2022-11-09T11:56:47.034Z,50
2022-11-09T12:01:48.735Z,50
2022-11-09T12:06:50.412Z,51
2022-11-09T12:11:52.261Z,51
2022-11-09T12:16:54.394Z,52
2022-11-09T12:21:56.474Z,52
2022-11-09T12:27:11.239Z,52
2022-11-09T12:32:00.242Z,52
2022-11-09T12:37:02.090Z,52
2022-11-09T12:42:03.543Z,53
2022-11-09T12:47:06.009Z,53
2022-11-09T12:52:06.938Z,53
2022-11-09T12:57:08.363Z,54
2022-11-09T13:02:10.147Z,54
2022-11-09T13:07:12.028Z,54
2022-11-09T13:12:16.091Z,54
2022-11-09T13:17:14.958Z,54
2022-11-09T13:22:17.040Z,54
2022-11-09T13:27:18.331Z,55
2022-11-09T13:32:20.509Z,55
2022-11-09T13:37:22.307Z,56
2022-11-09T13:42:24.125Z,56
2022-11-09T13:47:25.414Z,56
2022-11-09T13:52:27.277Z,56
2022-11-09T13:57:28.994Z,56
2022-11-09T14:02:31.191Z,56
2022-11-09T14:07:33.224Z,56
2022-11-09T14:12:34.394Z,57
2022-11-09T14:17:35.950Z,58
2022-11-09T14:22:37.965Z,58
2022-11-09T14:27:39.192Z,59
2022-11-09T14:32:41.048Z,59
2022-11-09T14:37:42.679Z,59
2022-11-09T14:42:46.268Z,60
2022-11-09T14:47:45.947Z,60
2022-11-09T14:52:47.192Z,61
2022-11-09T14:57:48.558Z,61
2022-11-09T15:02:50.696Z,61
2022-11-09T15:07:52.157Z,61
2022-11-09T15:12:54.096Z,62
2022-11-09T15:17:55.568Z,62
2022-11-09T15:22:57.164Z,62
2022-11-09T15:27:59.063Z,62
2022-11-09T15:33:01.391Z,62
2022-11-09T15:38:03.173Z,63
2022-11-09T15:43:04.673Z,63
2022-11-09T15:48:06.597Z,64
2022-11-09T15:53:08.438Z,64
2022-11-09T15:58:10.278Z,64
2022-11-09T16:03:12.586Z,64
2022-11-09T16:08:13.809Z,65
2022-11-09T16:13:15.591Z,65
2022-11-09T16:18:20.179Z,65
2022-11-09T16:23:18.749Z,65
2022-11-09T16:28:20.536Z,66
2022-11-09T16:33:21.622Z,66
2022-11-09T16:38:23.677Z,66
2022-11-09T16:43:25.400Z,66
2022-11-09T16:48:27.171Z,67
2022-11-09T16:53:28.994Z,67
2022-11-09T16:58:31.184Z,67
2022-11-09T17:03:32.963Z,67
2022-11-09T17:08:34.136Z,68
2022-11-09T17:13:35.471Z,68
2022-11-09T17:18:37.191Z,68
2022-11-09T17:23:39.004Z,68
2022-11-09T17:28:43.056Z,69
2022-11-09T17:33:42.593Z,70
2022-11-09T17:38:44.667Z,71
2022-11-09T17:43:46.651Z,72
2022-11-09T17:48:48.294Z,72
2022-11-09T17:53:49.507Z,75
2022-11-09T17:58:51.002Z,75
2022-11-09T18:03:52.422Z,75
2022-11-09T18:09:19.582Z,75
2022-11-09T18:13:55.821Z,76
2022-11-09T18:18:57.146Z,76
2022-11-09T18:23:58.311Z,76
2022-11-09T18:29:00.420Z,76
2022-11-09T18:34:02.577Z,76
2022-11-09T18:39:04.059Z,77
2022-11-09T18:44:06.090Z,77
2022-11-09T18:49:11.581Z,77
2022-11-09T18:54:09.389Z,77
2022-11-09T18:59:11.355Z,78
2022-11-09T19:04:13.223Z,78
2022-11-09T19:09:14.419Z,79
2022-11-09T19:14:16.067Z,79
2022-11-09T19:19:17.339Z,79
2022-11-09T19:24:19.209Z,79
2022-11-09T19:29:20.866Z,79
2022-11-09T19:34:22.507Z,80
2022-11-09T19:39:26.381Z,81
2022-11-09T19:44:25.865Z,80
2022-11-09T19:49:27.759Z,81
2022-11-09T19:54:29.653Z,81
2022-11-09T19:59:31.159Z,82
2022-11-09T20:04:32.867Z,82
2022-11-09T20:09:34.066Z,82
2022-11-09T20:09:40.389Z,82
2022-11-09T20:14:42.480Z,82
2022-11-09T20:19:44.283Z,82
2022-11-09T20:24:45.798Z,83
2022-11-09T20:29:47.168Z,83
2022-11-09T20:34:49.195Z,83
2022-11-09T20:39:50.851Z,83
2022-11-09T20:44:52.955Z,84
2022-11-09T20:49:55.230Z,84
2022-11-09T20:54:57.146Z,84
2022-11-09T20:59:59.225Z,85
2022-11-09T21:05:01.020Z,85
2022-11-09T21:10:02.658Z,85
2022-11-09T21:15:04.803Z,85
2022-11-09T21:20:06.198Z,86
2022-11-09T21:25:07.924Z,86
2022-11-09T21:30:09.822Z,86
2022-11-09T21:35:11.805Z,87
2022-11-09T21:40:13.510Z,86
2022-11-09T21:45:14.812Z,87
2022-11-09T21:50:16.319Z,87
2022-11-09T21:55:17.528Z,87
2022-11-09T22:00:18.850Z,87
2022-11-09T22:05:22.888Z,88
2022-11-09T22:10:21.499Z,88
2022-11-09T22:15:23.422Z,89
2022-11-09T22:20:24.708Z,89
2022-11-09T22:25:26.239Z,88
2022-11-09T22:30:28.383Z,88
2022-11-09T22:35:30.325Z,88
2022-11-09T22:40:32.415Z,88
2022-11-09T22:45:34.151Z,88
2022-11-09T22:50:35.548Z,88
2022-11-09T22:55:36.813Z,88
2022-11-09T23:15:43.544Z,87
2022-11-09T23:20:45.328Z,87
2022-11-09T23:25:47.218Z,87
2022-11-09T23:30:49.548Z,87
2022-11-09T23:35:50.842Z,86
2022-11-09T23:40:52.600Z,86
2022-11-09T23:45:54.184Z,86
2022-11-09T23:50:56.206Z,87
2022-11-09T23:55:57.599Z,87
